createdAt,value
2022-11-19T00:00:43.951Z,9.75
2022-11-19T00:03:58.871Z,8.82
2022-11-19T00:07:07.447Z,8.60
2022-11-19T00:10:21.825Z,8.57
2022-11-19T00:13:23.682Z,8.67
2022-11-19T00:16:38.882Z,9.15
2022-11-19T00:19:53.843Z,8.30
2022-11-19T00:22:56.715Z,8.82
2022-11-19T00:26:17.838Z,8.53
2022-11-19T00:29:26.475Z,8.63
2022-11-19T00:32:34.968Z,9.13
2022-11-19T00:35:43.713Z,8.40
2022-11-19T00:38:51.859Z,8.43
2022-11-19T00:42:00.489Z,9.20
2022-11-19T00:45:08.873Z,9.90
2022-11-19T00:48:30.844Z,9.27
2022-11-19T00:51:45.917Z,9.07
2022-11-19T00:55:00.884Z,8.32
2022-11-19T00:58:09.485Z,8.47
2022-11-19T01:01:26.921Z,8.63
2022-11-19T01:04:41.850Z,8.90
2022-11-19T01:07:50.458Z,8.98
2022-11-19T01:10:58.874Z,8.25
2022-11-19T01:14:13.889Z,8.60
2022-11-19T01:17:15.661Z,9.20
2022-11-19T01:20:30.860Z,8.90
2022-11-19T01:23:33.464Z,8.95
2022-11-19T01:26:47.887Z,8.85
2022-11-19T01:29:56.482Z,10.47
2022-11-19T01:33:10.905Z,9.17
2022-11-19T01:36:27.976Z,9.45
2022-11-19T01:39:35.888Z,9.02
2022-11-19T01:42:50.921Z,9.35
2022-11-19T01:45:52.854Z,9.13
2022-11-19T01:49:12.874Z,9.27
2022-11-19T01:52:20.899Z,9.32
2022-11-19T01:55:36.905Z,9.30
2022-11-19T01:58:42.152Z,9.45
2022-11-19T02:01:56.945Z,9.07
2022-11-19T02:05:12.910Z,9.17
2022-11-19T02:08:45.914Z,9.25
2022-11-19T02:12:24.355Z,9.68
2022-11-19T02:15:47.910Z,9.70
2022-11-19T02:19:09.913Z,9.80
2022-11-19T02:22:37.919Z,9.93
2022-11-19T02:26:20.354Z,8.35
2022-11-19T02:30:01.922Z,9.25
2022-11-19T02:33:23.850Z,9.73
2022-11-19T02:36:45.958Z,9.63
2022-11-19T02:39:55.751Z,9.70
2022-11-19T02:43:33.898Z,9.70
2022-11-19T02:46:48.931Z,9.57
2022-11-19T02:50:02.585Z,9.77
2022-11-19T02:53:17.918Z,10.03
2022-11-19T02:56:39.695Z,10.40
2022-11-19T03:00:09.956Z,9.52
2022-11-19T03:03:27.935Z,9.73
2022-11-19T03:06:43.925Z,9.07
2022-11-19T03:09:54.494Z,9.17
2022-11-19T03:13:20.934Z,9.87
2022-11-19T03:16:41.917Z,10.82
2022-11-19T03:20:04.922Z,11.25
2022-11-19T03:23:29.929Z,10.45
2022-11-19T03:26:46.201Z,10.03
2022-11-19T03:30:03.897Z,10.47
2022-11-19T03:33:20.922Z,9.98
2022-11-19T03:36:41.914Z,10.23
2022-11-19T03:39:51.991Z,10.45
2022-11-19T03:43:05.285Z,9.67
2022-11-19T03:46:18.949Z,10.73
2022-11-19T03:49:45.909Z,10.18
2022-11-19T03:52:53.966Z,11.02
2022-11-19T03:56:11.965Z,10.52
2022-11-19T03:59:13.745Z,11.53
2022-11-19T04:02:28.948Z,9.77
2022-11-19T04:05:36.899Z,11.55
2022-11-19T04:08:45.547Z,9.57
2022-11-19T04:15:01.458Z,10.83
2022-11-19T04:18:15.913Z,11.53
2022-11-19T04:21:31.990Z,11.80
2022-11-19T04:24:39.969Z,11.90
2022-11-19T04:27:54.970Z,11.07
2022-11-19T04:31:02.958Z,11.67
2022-11-19T04:34:17.931Z,12.37
2022-11-19T04:37:32.952Z,12.25
2022-11-19T04:40:41.062Z,12.30
2022-11-19T04:43:56.981Z,12.48
2022-11-19T04:47:05.978Z,12.13
2022-11-19T04:50:27.955Z,11.13
2022-11-19T04:53:36.517Z,13.20
2022-11-19T04:56:44.959Z,12.30
2022-11-19T04:59:53.623Z,11.63
2022-11-19T05:03:02.008Z,12.20
2022-11-19T05:06:10.586Z,12.93
2022-11-19T05:09:19.208Z,11.88
2022-11-19T05:12:34.030Z,13.07
2022-11-19T05:15:35.886Z,12.63
2022-11-19T05:18:51.981Z,12.63
2022-11-19T05:22:06.970Z,12.47
2022-11-19T05:25:14.933Z,15.13
2022-11-19T05:28:38.410Z,12.18
2022-11-19T05:31:47.730Z,12.18
2022-11-19T05:34:55.986Z,11.50
2022-11-19T05:38:11.006Z,12.40
2022-11-19T05:41:18.957Z,12.88
2022-11-19T05:44:27.681Z,12.55
2022-11-19T05:47:35.989Z,12.32
2022-11-19T05:50:50.958Z,13.27
2022-11-19T05:53:52.691Z,12.27
2022-11-19T05:57:06.958Z,12.15
2022-11-19T06:00:09.707Z,12.52
2022-11-19T06:03:23.962Z,13.00
2022-11-19T06:06:32.015Z,12.30
2022-11-19T06:09:46.999Z,11.47
2022-11-19T06:12:55.010Z,12.23
2022-11-19T06:16:03.807Z,11.30
2022-11-19T06:19:11.982Z,12.02
2022-11-19T06:22:20.717Z,11.47
2022-11-19T06:25:38.024Z,12.20
2022-11-19T06:28:39.813Z,12.63
2022-11-19T06:31:55.026Z,12.52
2022-11-19T06:34:56.922Z,12.57
2022-11-19T06:38:12.067Z,12.90
2022-11-19T06:41:20.629Z,11.73
2022-11-19T06:44:29.006Z,11.07
2022-11-19T06:47:46.034Z,12.52
2022-11-19T06:51:08.022Z,11.88
2022-11-19T06:54:17.013Z,12.00
2022-11-19T06:57:31.994Z,11.93
2022-11-19T07:00:46.986Z,12.15
2022-11-19T07:03:48.734Z,10.90
2022-11-19T07:07:03.020Z,11.98
2022-11-19T07:10:11.653Z,11.67
2022-11-19T07:13:20.008Z,12.93
2022-11-19T07:16:38.062Z,10.93
2022-11-19T07:19:40.074Z,11.73
2022-11-19T07:22:59.070Z,12.98
2022-11-19T07:26:02.009Z,11.67
2022-11-19T07:29:19.352Z,13.43
2022-11-19T07:32:21.791Z,12.85
2022-11-19T07:35:37.024Z,11.57
2022-11-19T07:38:44.997Z,13.30
2022-11-19T07:42:01.054Z,11.63
2022-11-19T07:45:03.164Z,13.13
2022-11-19T07:48:18.183Z,13.20
2022-11-19T07:51:33.125Z,13.30
2022-11-19T07:54:41.685Z,12.80
2022-11-19T07:57:50.018Z,12.37
2022-11-19T08:01:23.043Z,13.83
2022-11-19T08:04:38.072Z,14.52
2022-11-19T08:07:46.606Z,13.07
2022-11-19T08:10:55.010Z,13.30
2022-11-19T08:14:03.537Z,12.57
2022-11-19T08:17:12.067Z,13.63
2022-11-19T08:20:20.763Z,14.30
2022-11-19T08:23:29.007Z,13.30
2022-11-19T08:26:38.245Z,13.25
2022-11-19T08:29:47.046Z,14.75
2022-11-19T08:32:55.662Z,12.37
2022-11-19T08:36:11.081Z,13.07
2022-11-19T08:39:19.033Z,13.75
2022-11-19T08:42:27.614Z,12.88
2022-11-19T08:45:42.001Z,13.65
2022-11-19T08:48:57.334Z,13.13
2022-11-19T08:52:12.106Z,15.50
2022-11-19T08:55:20.738Z,15.30
2022-11-19T08:58:29.096Z,14.80
2022-11-19T09:01:37.913Z,13.82
2022-11-19T09:04:46.083Z,13.97
2022-11-19T09:07:55.186Z,15.35
2022-11-19T09:11:04.040Z,14.40
2022-11-19T09:14:12.933Z,13.95
2022-11-19T09:17:21.046Z,15.23
2022-11-19T09:20:29.590Z,13.57
2022-11-19T09:23:38.137Z,13.62
2022-11-19T09:26:52.427Z,13.93
2022-11-19T09:30:01.093Z,13.77
2022-11-19T09:33:16.086Z,12.55
2022-11-19T09:36:18.959Z,13.27
2022-11-19T09:39:34.097Z,13.62
2022-11-19T09:43:15.612Z,13.20
2022-11-19T09:46:56.077Z,12.45
2022-11-19T09:50:22.337Z,12.57
2022-11-19T09:53:49.103Z,13.03
2022-11-19T09:57:04.407Z,12.85
2022-11-19T10:00:25.062Z,12.37
2022-11-19T10:03:33.234Z,13.23
2022-11-19T10:07:14.158Z,13.52
2022-11-19T10:10:36.158Z,13.00
2022-11-19T10:14:13.075Z,12.98
2022-11-19T10:17:57.103Z,15.13
2022-11-19T10:21:21.558Z,13.43
2022-11-19T10:24:50.211Z,14.00
2022-11-19T10:27:55.099Z,13.77
2022-11-19T10:31:18.143Z,12.70
2022-11-19T10:34:39.066Z,13.82
2022-11-19T10:37:59.786Z,12.68
2022-11-19T10:41:22.200Z,12.40
2022-11-19T10:44:53.143Z,13.07
2022-11-19T10:48:10.458Z,13.10
2022-11-19T10:51:36.158Z,12.50
2022-11-19T10:54:39.583Z,12.32
2022-11-19T10:57:56.197Z,12.65
2022-11-19T11:01:01.185Z,11.73
2022-11-19T11:04:28.111Z,15.43
2022-11-19T11:07:56.148Z,12.73
2022-11-19T11:11:04.910Z,11.65
2022-11-19T11:14:18.130Z,12.35
2022-11-19T11:17:37.109Z,13.23
2022-11-19T11:20:52.069Z,13.05
2022-11-19T11:24:09.124Z,13.80
2022-11-19T11:27:24.299Z,13.23
2022-11-19T11:30:39.154Z,12.07
2022-11-19T11:33:54.749Z,12.97
2022-11-19T11:37:12.127Z,12.57
2022-11-19T11:40:21.634Z,13.13
2022-11-19T11:43:38.146Z,11.93
2022-11-19T11:46:58.150Z,13.35
2022-11-19T11:50:28.157Z,12.47
2022-11-19T11:53:32.819Z,13.62
2022-11-19T11:56:47.138Z,12.35
2022-11-19T12:00:03.107Z,12.55
2022-11-19T12:03:15.666Z,13.30
2022-11-19T12:06:27.137Z,12.17
2022-11-19T12:10:02.137Z,12.45
2022-11-19T12:13:47.201Z,14.20
2022-11-19T12:17:13.558Z,14.32
2022-11-19T12:20:54.193Z,13.23
2022-11-19T12:24:17.047Z,13.57
2022-11-19T12:27:44.190Z,13.77
2022-11-19T12:31:17.130Z,12.88
2022-11-19T12:34:49.231Z,13.25
2022-11-19T12:38:26.123Z,14.10
2022-11-19T12:42:02.285Z,14.47
2022-11-19T12:45:26.166Z,13.88
2022-11-19T12:49:09.178Z,14.93
2022-11-19T12:52:54.171Z,13.93
2022-11-19T12:56:39.134Z,14.60
2022-11-19T13:00:15.167Z,13.67
2022-11-19T13:03:50.519Z,13.20
2022-11-19T13:07:01.992Z,14.82
2022-11-19T13:10:25.156Z,15.35
2022-11-19T13:13:36.212Z,14.82
2022-11-19T13:16:44.954Z,13.20
2022-11-19T13:20:00.173Z,13.38
2022-11-19T13:23:23.186Z,13.70
2022-11-19T13:26:38.190Z,15.10
2022-11-19T13:30:07.169Z,14.18
2022-11-19T13:33:16.011Z,14.63
2022-11-19T13:36:41.191Z,15.27
2022-11-19T13:39:58.392Z,13.90
2022-11-19T13:46:58.276Z,14.32
2022-11-19T13:50:13.174Z,14.57
2022-11-19T13:53:34.861Z,14.85
2022-11-19T13:56:56.215Z,16.05
2022-11-19T14:00:07.955Z,14.70
2022-11-19T14:03:44.197Z,15.90
2022-11-19T14:07:13.804Z,15.83
2022-11-19T14:10:49.226Z,16.33
2022-11-19T14:14:44.264Z,15.57
2022-11-19T14:18:13.187Z,15.50
2022-11-19T14:21:45.557Z,15.52
2022-11-19T14:25:01.211Z,14.93
2022-11-19T14:28:39.198Z,17.42
2022-11-19T14:32:17.546Z,14.98
2022-11-19T14:35:41.179Z,16.23
2022-11-19T14:38:59.185Z,15.95
2022-11-19T14:42:24.297Z,16.43
2022-11-19T14:45:39.238Z,15.73
2022-11-19T14:48:59.252Z,16.30
2022-11-19T14:52:33.197Z,16.77
2022-11-19T14:55:35.028Z,15.52
2022-11-19T14:59:02.207Z,15.30
2022-11-19T15:02:29.261Z,15.65
2022-11-19T15:05:50.226Z,14.07
2022-11-19T15:08:55.310Z,14.00
2022-11-19T15:12:12.242Z,14.05
2022-11-19T15:15:40.314Z,13.83
2022-11-19T15:19:10.276Z,13.25
2022-11-19T15:22:34.210Z,13.27
2022-11-19T15:26:12.165Z,13.50
2022-11-19T15:29:44.233Z,12.63
2022-11-19T15:33:22.283Z,12.93
2022-11-19T15:36:41.318Z,13.25
2022-11-19T15:39:59.197Z,13.52
2022-11-19T15:43:26.263Z,13.60
2022-11-19T15:46:48.130Z,13.70
2022-11-19T15:49:59.232Z,13.20
2022-11-19T15:53:18.382Z,12.23
2022-11-19T15:56:39.226Z,13.60
2022-11-19T16:00:04.289Z,13.52
2022-11-19T16:03:10.550Z,13.27
2022-11-19T16:06:35.215Z,11.43
2022-11-19T16:09:43.934Z,14.63
2022-11-19T16:13:01.250Z,13.35
2022-11-19T16:16:22.890Z,13.35
2022-11-19T16:19:31.261Z,12.95
2022-11-19T16:22:50.808Z,13.00
2022-11-19T16:26:00.235Z,13.70
2022-11-19T16:29:26.249Z,13.00
2022-11-19T16:32:28.117Z,14.02
2022-11-19T16:35:46.036Z,13.00
2022-11-19T16:38:58.212Z,13.33
2022-11-19T16:42:15.663Z,12.48
2022-11-19T16:45:32.223Z,14.32
2022-11-19T16:49:05.234Z,13.02
2022-11-19T16:52:07.354Z,12.07
2022-11-19T16:55:46.308Z,11.60
2022-11-19T16:58:55.238Z,13.35
2022-11-19T17:02:10.323Z,13.45
2022-11-19T17:05:22.230Z,12.68
2022-11-19T17:08:33.167Z,13.02
2022-11-19T17:11:47.470Z,13.60
2022-11-19T17:15:05.229Z,15.38
2022-11-19T17:18:29.416Z,17.37
2022-11-19T17:21:44.257Z,15.38
2022-11-19T17:24:53.285Z,15.02
2022-11-19T17:28:08.257Z,11.57
2022-11-19T17:31:27.212Z,12.50
2022-11-19T17:34:51.283Z,12.73
2022-11-19T17:38:08.673Z,11.55
2022-11-19T17:41:22.270Z,11.80
2022-11-19T17:44:32.163Z,13.50
2022-11-19T17:47:47.290Z,11.75
2022-11-19T17:51:02.565Z,13.45
2022-11-19T17:54:17.257Z,11.82
2022-11-19T17:57:32.353Z,11.68
2022-11-19T18:00:41.292Z,12.33
2022-11-19T18:03:56.279Z,11.85
2022-11-19T18:07:04.304Z,12.48
2022-11-19T18:10:13.441Z,12.30
2022-11-19T18:13:27.273Z,12.80
2022-11-19T18:16:37.603Z,12.27
2022-11-19T18:19:52.282Z,11.98
2022-11-19T18:22:54.171Z,12.82
2022-11-19T18:26:09.323Z,13.32
2022-11-19T18:29:18.411Z,12.43
2022-11-19T18:32:33.277Z,12.60
2022-11-19T18:35:41.911Z,12.48
2022-11-19T18:38:56.298Z,14.32
2022-11-19T18:42:04.318Z,12.60
2022-11-19T18:45:12.926Z,14.13
2022-11-19T18:48:21.251Z,13.97
2022-11-19T18:51:43.282Z,13.63
2022-11-19T18:54:58.269Z,13.70
2022-11-19T18:58:13.290Z,13.75
2022-11-19T19:01:21.337Z,14.00
2022-11-19T19:04:30.294Z,12.48
2022-11-19T19:07:38.350Z,13.23
2022-11-19T19:10:49.007Z,13.25
2022-11-19T19:13:57.300Z,15.00
2022-11-19T19:17:12.272Z,12.55
2022-11-19T19:20:14.645Z,13.48
2022-11-19T19:23:29.439Z,12.83
2022-11-19T19:26:38.277Z,12.82
2022-11-19T19:29:46.911Z,12.10
2022-11-19T19:32:55.410Z,12.15
2022-11-19T19:36:05.400Z,13.25
2022-11-19T19:39:14.318Z,12.37
2022-11-19T19:42:29.375Z,12.48
2022-11-19T19:45:33.697Z,13.00
2022-11-19T19:48:50.303Z,12.25
2022-11-19T19:52:12.389Z,12.18
2022-11-19T19:55:20.347Z,11.30
2022-11-19T19:58:35.319Z,11.88
2022-11-19T20:01:44.367Z,12.88
2022-11-19T20:04:52.887Z,11.52
2022-11-19T20:08:07.270Z,12.00
2022-11-19T20:11:19.725Z,11.70
2022-11-19T20:14:28.299Z,11.88
2022-11-19T20:17:37.154Z,12.82
2022-11-19T20:20:45.313Z,12.23
2022-11-19T20:24:01.336Z,11.88
2022-11-19T20:27:16.337Z,11.43
2022-11-19T20:30:24.988Z,12.02
2022-11-19T20:33:40.306Z,11.85
2022-11-19T20:36:42.540Z,10.98
2022-11-19T20:39:57.314Z,12.13
2022-11-19T20:43:05.850Z,11.30
2022-11-19T20:46:16.291Z,11.40
2022-11-19T20:49:41.435Z,11.65
2022-11-19T20:52:50.995Z,11.18
2022-11-19T20:56:06.365Z,11.93
2022-11-19T20:59:09.186Z,10.63
2022-11-19T21:02:24.395Z,11.57
2022-11-19T21:05:26.214Z,11.98
2022-11-19T21:08:42.417Z,10.48
2022-11-19T21:11:44.242Z,11.00
2022-11-19T21:14:59.373Z,10.57
2022-11-19T21:18:01.230Z,10.93
2022-11-19T21:21:18.380Z,10.32
2022-11-19T21:24:20.130Z,10.48
2022-11-19T21:27:35.318Z,10.23
2022-11-19T21:30:37.175Z,9.90
2022-11-19T21:33:52.363Z,9.68
2022-11-19T21:37:07.375Z,10.57
2022-11-19T21:40:09.878Z,9.82
2022-11-19T21:43:25.340Z,10.05
2022-11-19T21:46:41.338Z,10.33
2022-11-19T21:49:49.346Z,10.02
2022-11-19T21:53:11.337Z,9.15
2022-11-19T21:56:19.893Z,9.50
2022-11-19T21:59:28.362Z,9.10
2022-11-19T22:02:43.401Z,8.80
2022-11-19T22:05:45.199Z,9.20
2022-11-19T22:09:00.363Z,9.68
2022-11-19T22:12:08.486Z,9.20
2022-11-19T22:15:23.386Z,9.50
2022-11-19T22:18:31.338Z,9.97
2022-11-19T22:21:46.361Z,9.77
2022-11-19T22:24:54.382Z,9.23
2022-11-19T22:28:02.947Z,9.00
2022-11-19T22:31:12.354Z,9.60
2022-11-19T22:34:27.334Z,8.63
2022-11-19T22:37:35.333Z,9.32
2022-11-19T22:40:50.349Z,10.23
2022-11-19T22:43:58.337Z,9.18
2022-11-19T22:47:13.390Z,9.75
2022-11-19T22:50:15.242Z,8.33
2022-11-19T22:53:37.386Z,8.63
2022-11-19T22:56:52.354Z,8.55
2022-11-19T23:00:01.069Z,8.77
2022-11-19T23:03:09.486Z,8.88
2022-11-19T23:06:18.389Z,9.40
2022-11-19T23:09:26.348Z,10.45
2022-11-19T23:12:35.190Z,10.07
2022-11-19T23:15:50.431Z,10.32
2022-11-19T23:18:53.170Z,8.80
2022-11-19T23:22:08.410Z,10.07
2022-11-19T23:25:10.279Z,9.57
2022-11-19T23:28:25.429Z,8.07
2022-11-19T23:31:29.598Z,9.68
2022-11-19T23:34:44.430Z,9.00
2022-11-19T23:37:53.010Z,9.13
2022-11-19T23:41:10.423Z,8.52
2022-11-19T23:44:19.037Z,9.57
2022-11-19T23:47:27.527Z,7.80
2022-11-19T23:50:49.535Z,9.10
2022-11-19T23:53:58.349Z,10.07
2022-11-19T23:57:13.429Z,8.82
